Time;durP1;ratioP1;P1;durP2;ratioP2;P2;SDS_P1;SDS_P2;PMS_P1;PMS_P2;Temp;Humidity;BMP_temperature;BMP_pressure;BME280_temperature;BME280_humidity;BME280_pressure;Samples;Min_cycle;Max_cycle;Signal;HPM_P1;HPM_P2
2022/01/27 00:01:42;;;;;;;20.90;11.30;;;;;;;-0.41;84.54;99354.59;107913;1279;22721;-76
2022/01/27 00:04:20;;;;;;;24.20;10.90;;;;;;;-0.37;84.75;99350.12;107952;1279;22567;-76
2022/01/27 00:06:47;;;;;;;18.50;9.70;;;;;;;-0.37;84.89;99341.21;107964;1279;22670;-75
2022/01/27 00:09:17;;;;;;;25.30;12.10;;;;;;;-0.38;84.95;99324.63;107945;1279;27730;-76
2022/01/27 00:11:47;;;;;;;26.50;12.50;;;;;;;-0.37;85.00;99321.88;107957;1279;22695;-76
2022/01/27 00:14:18;;;;;;;31.10;11.70;;;;;;;-0.36;84.86;99322.90;107951;1279;25408;-76
2022/01/27 00:16:55;;;;;;;32.90;14.30;;;;;;;-0.38;84.65;99326.34;107948;1279;24532;-76
2022/01/27 00:19:22;;;;;;;39.10;14.80;;;;;;;-0.39;84.41;99333.19;107928;1279;22969;-76
2022/01/27 00:21:49;;;;;;;36.80;15.80;;;;;;;-0.37;84.48;99331.64;107986;1279;22561;-75
2022/01/27 00:24:16;;;;;;;27.80;12.40;;;;;;;-0.34;84.59;99333.30;107975;1279;22557;-76
2022/01/27 00:26:44;;;;;;;22.70;11.20;;;;;;;-0.34;84.84;99330.21;107928;1279;22587;-77
2022/01/27 00:29:11;;;;;;;24.30;11.20;;;;;;;-0.36;84.93;99330.42;107935;1279;22843;-76
2022/01/27 00:31:38;;;;;;;21.20;10.00;;;;;;;-0.37;84.80;99333.01;107935;1279;22607;-76
2022/01/27 00:34:05;;;;;;;21.20;10.40;;;;;;;-0.38;84.61;99334.55;107948;1279;22589;-76
2022/01/27 00:36:33;;;;;;;17.50;9.30;;;;;;;-0.41;84.51;99329.95;107977;1279;22587;-76
2022/01/27 00:39:00;;;;;;;21.50;10.90;;;;;;;-0.40;84.25;99319.85;107982;1279;22667;-76
2022/01/27 00:41:28;;;;;;;26.10;10.80;;;;;;;-0.37;84.20;99311.61;107925;1279;22607;-76
2022/01/27 00:43:55;;;;;;;20.00;10.00;;;;;;;-0.37;84.28;99307.35;107997;1279;22620;-76
2022/01/27 00:46:22;;;;;;;18.90;10.10;;;;;;;-0.35;84.70;99307.82;107970;1279;23245;-76
2022/01/27 00:48:50;;;;;;;20.70;9.90;;;;;;;-0.36;84.74;99307.33;107961;1279;25426;-76
2022/01/27 00:51:24;;;;;;;22.30;11.40;;;;;;;-0.41;84.50;99309.24;108007;1279;25575;-76
2022/01/27 00:54:05;;;;;;;19.90;9.80;;;;;;;-0.40;84.22;99305.81;107952;1278;22592;-76
2022/01/27 00:56:50;;;;;;;20.00;11.10;;;;;;;-0.44;84.08;99302.77;107960;1279;22669;-77
2022/01/27 01:04:41;;;;;;;24.00;11.40;;;;;;;-0.38;84.32;99293.14;107496;1281;22704;-76
2022/01/27 01:07:10;;;;;;;18.80;10.70;;;;;;;-0.39;84.56;99290.92;107936;1279;22649;-76
2022/01/27 01:30:50;;;;;;;22.30;11.00;;;;;;;-0.40;84.49;99299.98;108217;1279;22889;-76
2022/01/27 01:33:26;;;;;;;23.00;10.50;;;;;;;-0.40;84.27;99298.27;108219;1279;22562;-77
2022/01/27 01:36:04;;;;;;;23.70;11.10;;;;;;;-0.41;84.22;99283.92;108238;1279;25333;-77
2022/01/27 01:38:31;;;;;;;21.70;11.00;;;;;;;-0.42;83.95;99279.30;108206;1279;22557;-77
2022/01/27 01:40:59;;;;;;;22.60;10.20;;;;;;;-0.43;83.88;99273.66;108224;1279;22580;-76
2022/01/27 01:43:28;;;;;;;21.40;11.20;;;;;;;-0.40;83.83;99269.19;108211;1279;22883;-77
2022/01/27 01:45:55;;;;;;;19.00;10.60;;;;;;;-0.36;83.79;99270.19;108215;1279;22569;-77
2022/01/27 01:48:23;;;;;;;18.40;9.80;;;;;;;-0.38;83.99;99273.97;108222;1279;25201;-76
2022/01/27 01:50:50;;;;;;;20.20;11.60;;;;;;;-0.41;84.15;99282.20;108220;1279;25435;-76
2022/01/27 01:53:17;;;;;;;21.70;11.70;;;;;;;-0.41;84.01;99275.70;108205;1279;22710;-75
2022/01/27 01:55:44;;;;;;;21.00;10.90;;;;;;;-0.42;83.84;99268.70;108213;1279;22572;-76
2022/01/27 01:58:11;;;;;;;19.70;11.00;;;;;;;-0.43;83.56;99261.86;108244;1279;22561;-77
2022/01/27 02:00:38;;;;;;;26.40;12.40;;;;;;;-0.44;83.45;99256.91;108229;1279;22568;-77
2022/01/27 02:03:05;;;;;;;24.80;12.80;;;;;;;-0.41;83.38;99261.33;108222;1279;22642;-77
2022/01/27 02:05:39;;;;;;;23.90;13.10;;;;;;;-0.40;83.60;99254.30;108207;1279;22569;-77
2022/01/27 02:19:21;;;;;;;18.40;10.00;;;;;;;-0.39;83.13;99243.51;108234;1279;22559;-77
2022/01/27 02:22:04;;;;;;;21.80;12.50;;;;;;;-0.41;83.00;99242.16;108201;1279;22569;-77
2022/01/27 02:24:34;;;;;;;26.30;13.30;;;;;;;-0.38;83.06;99238.55;108217;1279;22572;-77
2022/01/27 02:27:02;;;;;;;22.40;12.40;;;;;;;-0.35;83.13;99234.91;108230;1279;22586;-76
2022/01/27 02:29:30;;;;;;;20.70;11.50;;;;;;;-0.33;83.39;99233.85;108196;1279;22576;-76
2022/01/27 02:31:59;;;;;;;21.60;12.10;;;;;;;-0.35;83.72;99235.25;108222;1279;22696;-77
2022/01/27 02:34:26;;;;;;;27.20;14.00;;;;;;;-0.35;83.52;99234.73;108247;1279;22581;-76
2022/01/27 02:36:53;;;;;;;22.80;13.10;;;;;;;-0.35;83.33;99234.05;108299;1279;25364;-77
2022/01/27 02:39:21;;;;;;;23.50;12.70;;;;;;;-0.35;83.19;99233.36;108296;1279;22553;-77
2022/01/27 02:41:54;;;;;;;25.60;13.90;;;;;;;-0.34;83.05;99231.63;108313;1279;22571;-77
2022/01/27 02:44:32;;;;;;;23.90;13.40;;;;;;;-0.29;82.93;99226.11;108319;1279;22583;-77
2022/01/27 02:47:00;;;;;;;27.40;14.80;;;;;;;-0.23;83.21;99229.30;108300;1279;24361;-77
2022/01/27 02:49:27;;;;;;;24.50;13.90;;;;;;;-0.24;83.15;99232.38;108334;1279;22568;-77
2022/01/27 02:51:54;;;;;;;25.70;14.90;;;;;;;-0.25;83.51;99230.67;108308;1279;22573;-77
2022/01/27 02:54:22;;;;;;;26.60;13.80;;;;;;;-0.24;83.21;99228.77;108291;1279;22695;-77
2022/01/27 02:56:49;;;;;;;24.20;13.50;;;;;;;-0.25;82.98;99231.35;108325;1279;22586;-77
2022/01/27 02:59:18;;;;;;;20.90;12.00;;;;;;;-0.27;82.77;99232.77;108285;1279;22572;-77
2022/01/27 03:01:47;;;;;;;26.60;14.30;;;;;;;-0.31;82.85;99227.51;108318;1279;22558;-77
2022/01/27 03:04:15;;;;;;;29.10;15.60;;;;;;;-0.32;82.60;99233.50;108305;1279;22581;-77
2022/01/27 03:06:44;;;;;;;28.90;16.30;;;;;;;-0.31;82.75;99233.31;108266;1279;22556;-77
2022/01/27 03:09:11;;;;;;;27.50;14.70;;;;;;;-0.30;83.05;99229.38;108290;1279;22551;-76
2022/01/27 03:11:46;;;;;;;23.40;13.00;;;;;;;-0.29;83.30;99228.52;108310;1279;22552;-75
2022/01/27 03:14:18;;;;;;;25.40;14.50;;;;;;;-0.33;83.49;99223.23;108294;1279;22680;-77
2022/01/27 03:16:45;;;;;;;27.00;15.40;;;;;;;-0.38;83.48;99215.77;108324;1279;22573;-77
2022/01/27 03:19:13;;;;;;;28.40;15.50;;;;;;;-0.39;83.24;99213.56;108285;1279;22569;-76
2022/01/27 03:21:41;;;;;;;28.30;16.30;;;;;;;-0.41;83.16;99209.82;108320;1279;22573;-77
2022/01/27 03:24:09;;;;;;;31.20;14.90;;;;;;;-0.43;83.06;99205.39;108298;1279;22552;-77
2022/01/27 03:26:36;;;;;;;30.60;15.60;;;;;;;-0.39;83.12;99206.38;108308;1279;22572;-77
2022/01/27 03:29:04;;;;;;;29.00;16.00;;;;;;;-0.36;83.22;99211.30;108302;1279;22561;-77
2022/01/27 03:31:31;;;;;;;31.40;16.80;;;;;;;-0.37;83.64;99223.13;108295;1279;22572;-77
2022/01/27 03:33:58;;;;;;;28.10;15.30;;;;;;;-0.40;83.76;99231.71;108275;1279;25517;-76
2022/01/27 03:36:25;;;;;;;26.50;14.30;;;;;;;-0.40;83.58;99230.35;108210;1279;26649;-77
2022/01/27 03:38:52;;;;;;;28.20;14.60;;;;;;;-0.42;83.37;99232.08;108214;1279;24448;-77
2022/01/27 03:41:21;;;;;;;29.30;16.20;;;;;;;-0.46;83.38;99228.70;108198;1279;22562;-77
2022/01/27 03:43:50;;;;;;;33.90;17.00;;;;;;;-0.47;83.23;99229.75;108202;1279;25316;-77
2022/01/27 03:46:18;;;;;;;35.30;19.40;;;;;;;-0.43;83.18;99225.07;108222;1279;22560;-76
2022/01/27 03:48:45;;;;;;;39.80;19.60;;;;;;;-0.40;83.49;99213.23;108219;1279;22633;-76
2022/01/27 03:51:12;;;;;;;32.60;17.90;;;;;;;-0.38;83.98;99206.02;108231;1279;25429;-75
2022/01/27 03:53:39;;;;;;;37.10;18.60;;;;;;;-0.42;84.05;99205.04;108216;1279;22556;-76
2022/01/27 03:56:07;;;;;;;38.20;19.90;;;;;;;-0.45;84.00;99201.47;108221;1279;22549;-77
2022/01/27 03:58:34;;;;;;;41.20;20.30;;;;;;;-0.44;83.92;99203.68;108242;1279;22565;-76
2022/01/27 04:01:03;;;;;;;36.70;18.80;;;;;;;-0.45;83.66;99201.32;108235;1279;22572;-77
2022/01/27 04:03:33;;;;;;;52.40;23.90;;;;;;;-0.48;83.63;99199.30;108213;1279;22565;-77
2022/01/27 04:06:06;;;;;;;48.90;23.50;;;;;;;-0.44;83.71;99196.00;108226;1279;22620;-76
2022/01/27 04:08:37;;;;;;;45.90;22.80;;;;;;;-0.42;83.82;99193.40;108107;1281;22643;-77
2022/01/27 04:11:09;;;;;;;44.50;21.10;;;;;;;-0.40;84.44;99189.45;108224;1279;22551;-77
2022/01/27 04:13:37;;;;;;;45.70;22.30;;;;;;;-0.45;84.44;99180.95;108222;1279;22556;-77
2022/01/27 04:16:05;;;;;;;33.70;16.90;;;;;;;-0.46;84.30;99179.77;108243;1279;22710;-77
2022/01/27 04:18:32;;;;;;;40.60;21.10;;;;;;;-0.48;84.29;99175.34;108249;1279;22575;-77
2022/01/27 04:20:59;;;;;;;42.60;22.60;;;;;;;-0.52;84.05;99177.77;108225;1279;22585;-76
2022/01/27 04:23:26;;;;;;;50.10;26.20;;;;;;;-0.50;84.07;99176.39;108215;1279;22559;-77
2022/01/27 04:25:53;;;;;;;45.70;24.00;;;;;;;-0.46;84.32;99176.88;108222;1279;22741;-77
2022/01/27 04:28:28;;;;;;;42.10;22.90;;;;;;;-0.47;84.68;99177.90;108226;1279;22704;-77
2022/01/27 04:30:56;;;;;;;37.10;20.40;;;;;;;-0.50;84.93;99179.64;108203;1279;25305;-72
2022/01/27 04:33:26;;;;;;;37.30;20.10;;;;;;;-0.52;85.02;99176.23;108196;1279;25389;-73
2022/01/27 04:35:57;;;;;;;36.80;20.10;;;;;;;-0.52;84.96;99166.83;108218;1279;22671;-74
2022/01/27 04:38:37;;;;;;;38.40;20.10;;;;;;;-0.53;84.78;99173.67;108200;1279;22644;-74
2022/01/27 04:43:49;;;;;;;40.70;22.50;;;;;;;-0.49;84.60;99173.46;108204;1279;23044;-74
2022/01/27 04:48:53;;;;;;;34.70;19.60;;;;;;;-0.48;85.13;99170.73;108214;1279;24371;-76
2022/01/27 04:51:23;;;;;;;38.90;20.50;;;;;;;-0.51;85.16;99170.92;108210;1279;22575;-76
2022/01/27 04:54:05;;;;;;;37.30;19.70;;;;;;;-0.54;85.02;99172.34;108074;1279;25377;-83
2022/01/27 04:56:34;;;;;;;31.60;17.30;;;;;;;-0.58;84.82;99171.35;107961;1279;22681;-78
2022/01/27 04:59:07;;;;;;;41.10;20.30;;;;;;;-0.59;84.65;99166.40;107952;1279;22620;-77
2022/01/27 05:01:58;;;;;;;40.60;21.60;;;;;;;-0.57;84.80;99164.50;107946;1279;22715;-78
2022/01/27 05:04:30;;;;;;;39.60;21.20;;;;;;;-0.54;85.01;99164.30;107965;1279;22667;-77
2022/01/27 05:06:57;;;;;;;32.70;17.60;;;;;;;-0.52;85.26;99165.28;107953;1279;22557;-77
2022/01/27 05:09:24;;;;;;;34.20;17.90;;;;;;;-0.54;85.32;99153.16;107944;1279;24198;-78
2022/01/27 05:11:56;;;;;;;35.80;19.50;;;;;;;-0.56;85.24;99141.91;107910;1279;24038;-76
2022/01/27 05:14:25;;;;;;;39.90;20.80;;;;;;;-0.60;85.05;99134.59;108011;1279;22546;-76
2022/01/27 05:16:53;;;;;;;47.00;24.30;;;;;;;-0.61;84.98;99131.36;107965;1279;22558;-77
2022/01/27 05:19:21;;;;;;;47.20;25.40;;;;;;;-0.58;84.97;99126.70;107954;1279;22620;-77
2022/01/27 05:21:48;;;;;;;43.30;23.20;;;;;;;-0.54;85.01;99122.21;107938;1279;22604;-76
2022/01/27 05:24:16;;;;;;;39.80;21.70;;;;;;;-0.52;85.31;99119.60;107931;1279;22775;-77
2022/01/27 05:26:43;;;;;;;41.10;21.90;;;;;;;-0.52;85.51;99116.18;107943;1279;22684;-78
2022/01/27 05:29:10;;;;;;;40.30;21.00;;;;;;;-0.53;85.28;99116.54;107973;1279;22579;-74
2022/01/27 05:31:38;;;;;;;36.60;20.40;;;;;;;-0.57;85.06;99117.80;107983;1279;22598;-77
2022/01/27 05:34:05;;;;;;;45.90;23.90;;;;;;;-0.58;84.83;99119.18;107947;1279;22579;-77
2022/01/27 05:36:36;;;;;;;44.00;22.80;;;;;;;-0.53;84.79;99113.63;107950;1279;22679;-78
2022/01/27 05:39:04;;;;;;;40.30;22.20;;;;;;;-0.50;84.91;99107.61;107939;1279;23547;-76
2022/01/27 05:41:31;;;;;;;36.70;20.80;;;;;;;-0.49;85.22;99101.27;108188;1279;22782;-76
2022/01/27 05:43:58;;;;;;;41.40;21.00;;;;;;;-0.52;85.20;99092.58;107816;1279;22700;-78
2022/01/27 05:46:25;;;;;;;46.70;21.70;;;;;;;-0.53;85.13;99088.14;107956;1279;22576;-77
2022/01/27 05:48:51;;;;;;;39.30;20.60;;;;;;;-0.54;84.84;99086.98;107943;1279;22577;-78
2022/01/27 05:51:18;;;;;;;43.80;20.80;;;;;;;-0.55;84.67;99085.79;107962;1279;22685;-76
2022/01/27 05:53:46;;;;;;;46.80;23.50;;;;;;;-0.56;84.43;99080.33;107967;1280;22673;-77
2022/01/27 05:56:13;;;;;;;48.30;24.30;;;;;;;-0.53;84.36;99078.38;107993;1279;24304;-74
2022/01/27 05:58:40;;;;;;;47.20;23.90;;;;;;;-0.49;84.62;99079.38;107958;1281;22634;-77
2022/01/27 06:01:07;;;;;;;36.80;19.50;;;;;;;-0.48;84.83;99077.30;107961;1279;24268;-76
2022/01/27 06:03:34;;;;;;;35.90;18.90;;;;;;;-0.50;84.94;99080.23;107964;1279;22632;-77
2022/01/27 06:06:01;;;;;;;36.60;18.90;;;;;;;-0.51;84.73;99086.40;107942;1279;22590;-77
2022/01/27 06:08:30;;;;;;;34.20;17.80;;;;;;;-0.52;84.39;99088.80;107940;1281;22633;-76
2022/01/27 06:10:57;;;;;;;39.70;18.40;;;;;;;-0.53;84.44;99080.80;107964;1281;22671;-74
2022/01/27 06:13:25;;;;;;;45.40;20.40;;;;;;;-0.53;84.09;99079.08;107936;1280;24272;-77
2022/01/27 06:15:52;;;;;;;45.40;22.00;;;;;;;-0.50;84.15;99073.90;107948;1279;22684;-74
2022/01/27 06:18:19;;;;;;;41.20;21.90;;;;;;;-0.46;84.24;99074.36;107958;1280;22550;-77
2022/01/27 06:20:46;;;;;;;41.20;19.40;;;;;;;-0.45;84.45;99072.98;107970;1279;25394;-75
2022/01/27 06:23:15;;;;;;;40.70;20.70;;;;;;;-0.46;84.63;99071.13;108011;1279;22616;-75
2022/01/27 06:25:42;;;;;;;42.60;19.80;;;;;;;-0.46;84.37;99066.86;107998;1281;22745;-74
2022/01/27 06:28:09;;;;;;;40.20;20.30;;;;;;;-0.48;84.13;99070.62;107960;1280;22555;-74
2022/01/27 06:30:36;;;;;;;39.40;18.90;;;;;;;-0.50;83.91;99064.66;107943;1279;22599;-74
2022/01/27 06:33:04;;;;;;;41.90;19.50;;;;;;;-0.48;83.80;99064.46;107987;1279;24043;-75
2022/01/27 06:35:31;;;;;;;43.80;21.50;;;;;;;-0.42;83.68;99067.13;107974;1281;22629;-77
2022/01/27 06:37:59;;;;;;;44.80;21.50;;;;;;;-0.41;83.82;99074.29;107976;1279;22547;-75
2022/01/27 06:40:26;;;;;;;42.10;20.50;;;;;;;-0.39;84.04;99075.98;107979;1281;22717;-75
2022/01/27 06:42:53;;;;;;;44.50;21.90;;;;;;;-0.40;84.27;99071.54;107818;1281;22592;-75
2022/01/27 06:45:21;;;;;;;41.60;20.10;;;;;;;-0.39;83.96;99066.40;107965;1280;24554;-77
2022/01/27 06:47:48;;;;;;;36.90;18.90;;;;;;;-0.40;83.71;99069.66;108024;1281;24447;-78
2022/01/27 06:50:15;;;;;;;41.70;20.40;;;;;;;-0.42;83.40;99067.11;108060;1281;22897;-79
2022/01/27 06:52:42;;;;;;;39.70;20.30;;;;;;;-0.43;83.36;99060.97;108006;1279;23019;-79
2022/01/27 06:55:14;;;;;;;44.40;20.70;;;;;;;-0.42;83.20;99059.08;108011;1279;22670;-78
2022/01/27 06:57:41;;;;;;;38.50;19.20;;;;;;;-0.35;83.17;99063.26;107993;1280;22655;-77
2022/01/27 07:00:09;;;;;;;40.20;20.70;;;;;;;-0.34;83.21;99063.23;108036;1279;22632;-80
2022/01/27 07:02:37;;;;;;;36.50;18.80;;;;;;;-0.29;83.72;99062.32;108027;1279;23172;-77
2022/01/27 07:05:04;;;;;;;36.20;19.60;;;;;;;-0.27;83.86;99062.63;108032;1281;22667;-79
2022/01/27 07:07:31;;;;;;;40.80;19.20;;;;;;;-0.25;83.72;99057.96;107937;1281;25439;-78
2022/01/27 07:09:58;;;;;;;43.60;19.60;;;;;;;-0.24;83.50;99048.20;107942;1281;22718;-78
2022/01/27 07:12:25;;;;;;;32.20;15.30;;;;;;;-0.21;83.40;99046.80;107944;1279;22592;-77
2022/01/27 07:14:54;;;;;;;39.30;19.90;;;;;;;-0.18;82.98;99037.15;107981;1279;22564;-79
2022/01/27 07:17:21;;;;;;;44.60;19.30;;;;;;;-0.11;82.94;99041.84;107940;1281;25498;-79
2022/01/27 07:19:48;;;;;;;34.70;18.00;;;;;;;-0.06;83.29;99043.46;107962;1281;22639;-78
2022/01/27 07:22:15;;;;;;;45.70;21.10;;;;;;;-0.05;83.19;99043.27;107964;1281;22630;-78
2022/01/27 07:24:42;;;;;;;41.10;20.90;;;;;;;-0.04;83.38;99042.25;107910;1280;22609;-76
2022/01/27 07:27:09;;;;;;;33.70;16.70;;;;;;;-0.04;83.11;99040.02;107923;1279;24444;-78
2022/01/27 07:29:36;;;;;;;43.60;21.60;;;;;;;-0.05;82.76;99038.48;107913;1280;22594;-78
2022/01/27 07:32:04;;;;;;;45.10;23.00;;;;;;;-0.07;82.65;99027.55;107952;1280;22734;-78
2022/01/27 07:34:31;;;;;;;37.00;18.70;;;;;;;-0.07;82.48;99027.20;107973;1281;22839;-78
2022/01/27 07:37:00;;;;;;;40.20;21.00;;;;;;;-0.03;82.42;99022.18;108036;1281;22707;-78
2022/01/27 07:39:27;;;;;;;39.80;19.60;;;;;;;0.05;82.43;99022.73;108022;1280;22579;-76
2022/01/27 07:41:57;;;;;;;40.10;19.10;;;;;;;0.08;82.52;99022.01;108012;1279;23445;-77
2022/01/27 07:44:27;;;;;;;36.60;19.20;;;;;;;0.07;82.48;99017.92;108055;1280;22664;-77
2022/01/27 07:46:55;;;;;;;44.40;21.10;;;;;;;0.10;82.74;99019.89;108081;1281;22719;-77
2022/01/27 07:49:22;;;;;;;39.40;18.50;;;;;;;0.13;82.31;99012.84;108080;1280;22577;-77
2022/01/27 07:51:49;;;;;;;30.10;15.10;;;;;;;0.12;82.19;99010.11;108087;1281;23388;-79
2022/01/27 07:54:16;;;;;;;39.30;19.50;;;;;;;0.15;81.62;99012.48;108019;1281;22626;-76
2022/01/27 07:56:43;;;;;;;38.80;20.40;;;;;;;0.18;81.58;99013.95;108010;1281;23387;-75
2022/01/27 07:59:10;;;;;;;40.50;21.20;;;;;;;0.26;81.58;99003.87;107878;1281;24316;-76
2022/01/27 08:01:37;;;;;;;42.00;20.50;;;;;;;0.41;81.86;98991.77;108039;1281;24245;-76
2022/01/27 08:04:04;;;;;;;36.80;19.40;;;;;;;0.52;81.86;98984.38;108048;1281;23120;-79
2022/01/27 08:06:31;;;;;;;42.60;18.70;;;;;;;0.59;82.25;98980.80;108015;1281;24259;-76
2022/01/27 08:08:58;;;;;;;45.00;19.90;;;;;;;0.61;82.06;98970.49;108017;1278;25525;-73
2022/01/27 08:11:25;;;;;;;45.40;21.00;;;;;;;0.63;81.78;98977.29;108041;1281;22636;-76
2022/01/27 08:13:52;;;;;;;33.50;16.20;;;;;;;0.63;81.72;98986.55;108007;1281;22675;-76
2022/01/27 08:16:19;;;;;;;28.50;14.90;;;;;;;0.66;81.14;98994.20;108029;1280;22588;-78
2022/01/27 08:18:47;;;;;;;29.30;14.50;;;;;;;0.67;80.99;99000.02;108006;1278;22569;-76
2022/01/27 08:21:14;;;;;;;37.60;16.40;;;;;;;0.67;80.72;98990.41;108054;1279;22699;-74
2022/01/27 08:23:43;;;;;;;31.90;17.10;;;;;;;0.66;80.61;98989.06;107995;1279;23150;-77
2022/01/27 08:26:14;;;;;;;34.60;17.30;;;;;;;0.68;80.83;98985.09;108053;1281;27732;-74
2022/01/27 08:28:46;;;;;;;29.20;14.30;;;;;;;0.70;81.35;98991.90;108052;1281;22546;-76
2022/01/27 08:31:14;;;;;;;36.00;17.60;;;;;;;0.65;81.09;98990.11;108016;1280;25758;-75
2022/01/27 08:33:42;;;;;;;34.10;15.30;;;;;;;0.65;80.62;98990.10;108012;1281;22641;-75
2022/01/27 08:36:09;;;;;;;38.70;17.00;;;;;;;0.71;80.37;98973.52;108013;1281;27738;-75
2022/01/27 08:38:41;;;;;;;38.30;17.90;;;;;;;0.78;80.19;98964.14;108022;1279;22822;-73
2022/01/27 08:41:09;;;;;;;29.10;15.10;;;;;;;0.89;79.88;98961.01;108019;1281;22700;-75
2022/01/27 08:43:36;;;;;;;36.70;16.70;;;;;;;0.98;79.27;98959.77;107860;1281;22575;-76
2022/01/27 08:46:03;;;;;;;33.50;16.40;;;;;;;1.04;79.40;98967.70;108027;1280;25412;-76
2022/01/27 08:48:30;;;;;;;32.90;17.40;;;;;;;1.07;79.70;98970.89;108029;1279;22721;-77
2022/01/27 08:51:01;;;;;;;35.70;18.10;;;;;;;1.09;79.84;98969.47;108017;1279;22577;-76
2022/01/27 08:53:30;;;;;;;31.80;14.60;;;;;;;1.12;79.47;98969.41;108007;1279;22567;-76
2022/01/27 08:55:57;;;;;;;33.70;16.60;;;;;;;1.15;79.46;98962.52;108045;1279;25360;-77
2022/01/27 08:58:25;;;;;;;33.60;15.80;;;;;;;1.15;78.95;98953.23;108037;1279;22704;-76
2022/01/27 09:00:52;;;;;;;31.10;16.30;;;;;;;1.24;78.67;98949.44;108017;1280;22740;-77
2022/01/27 09:03:20;;;;;;;40.00;18.70;;;;;;;1.26;78.31;98945.25;108019;1280;22705;-76
2022/01/27 09:05:47;;;;;;;33.10;15.60;;;;;;;1.27;78.10;98944.89;108028;1279;22690;-76
2022/01/27 09:08:14;;;;;;;26.30;13.50;;;;;;;1.36;78.17;98944.69;108024;1280;25323;-77
2022/01/27 09:10:41;;;;;;;32.70;15.20;;;;;;;1.35;78.13;98940.58;108025;1279;23995;-78
2022/01/27 09:13:08;;;;;;;31.60;15.20;;;;;;;1.37;78.30;98939.86;107918;1281;22659;-84
2022/01/27 09:15:35;;;;;;;34.00;16.70;;;;;;;1.33;78.10;98935.66;107897;1279;22637;-78
2022/01/27 09:18:03;;;;;;;31.40;15.20;;;;;;;1.34;78.00;98933.75;108214;1279;22720;-83
2022/01/27 09:20:31;;;;;;;34.20;17.90;;;;;;;1.31;77.17;98914.42;108163;1279;25720;-82
2022/01/27 09:23:00;;;;;;;35.60;16.30;;;;;;;1.34;77.74;98905.09;108244;1279;25430;-82
2022/01/27 09:25:32;;;;;;;45.00;21.90;;;;;;;1.37;77.17;98900.21;108260;1279;22579;-83
2022/01/27 09:27:59;;;;;;;60.30;26.20;;;;;;;1.35;77.15;98903.34;108290;1279;25592;-82
2022/01/27 09:30:26;;;;;;;36.20;19.50;;;;;;;1.36;76.14;98904.55;108256;1279;22576;-82
2022/01/27 09:32:55;;;;;;;33.80;18.00;;;;;;;1.34;75.76;98897.70;108272;1279;22562;-83
2022/01/27 09:35:23;;;;;;;37.70;18.00;;;;;;;1.25;76.55;98895.69;108185;1279;22740;-82
2022/01/27 09:37:50;;;;;;;38.60;19.50;;;;;;;1.26;76.16;98882.83;108178;1279;22566;-83
2022/01/27 09:40:17;;;;;;;36.10;16.30;;;;;;;1.30;75.75;98868.14;108197;1279;22669;-83
2022/01/27 09:42:51;;;;;;;31.60;15.90;;;;;;;1.24;75.66;98866.89;108190;1279;22561;-82
2022/01/27 09:45:19;;;;;;;40.00;19.00;;;;;;;1.28;75.97;98859.08;108188;1279;26683;-83
2022/01/27 09:48:01;;;;;;;29.30;14.30;;;;;;;1.31;75.65;98848.70;108206;1279;22587;-83
2022/01/27 09:50:49;;;;;;;30.20;14.70;;;;;;;1.29;75.44;98836.76;108214;1279;25474;-83
2022/01/27 09:53:16;;;;;;;28.20;13.60;;;;;;;1.30;75.73;98831.77;108212;1279;22553;-82
2022/01/27 09:55:44;;;;;;;30.80;15.20;;;;;;;1.36;75.96;98835.02;108202;1279;22572;-81
2022/01/27 09:58:11;;;;;;;27.30;13.80;;;;;;;1.33;76.09;98857.59;108232;1279;22590;-84
2022/01/27 10:00:38;;;;;;;47.30;23.50;;;;;;;1.31;75.82;98854.91;108198;1279;22550;-82
2022/01/27 10:03:16;;;;;;;39.80;18.20;;;;;;;1.28;75.79;98847.06;108215;1279;22580;-82
2022/01/27 10:05:44;;;;;;;40.10;20.10;;;;;;;1.30;75.61;98835.19;108230;1279;22590;-81
2022/01/27 10:08:18;;;;;;;39.50;21.30;;;;;;;1.34;75.52;98817.05;108233;1279;25396;-82
2022/01/27 10:10:48;;;;;;;37.10;17.30;;;;;;;1.33;75.00;98817.27;108207;1278;22565;-83
2022/01/27 10:13:31;;;;;;;34.70;18.50;;;;;;;1.34;75.19;98824.63;108193;1279;24080;-83
2022/01/27 10:15:58;;;;;;;30.30;14.90;;;;;;;1.39;75.19;98824.50;108209;1279;22572;-83
2022/01/27 10:18:27;;;;;;;37.00;18.90;;;;;;;1.45;74.75;98827.25;108229;1279;22565;-81
2022/01/27 10:21:08;;;;;;;29.00;15.90;;;;;;;1.47;75.19;98838.54;108215;1279;22561;-82
2022/01/27 10:23:39;;;;;;;24.40;12.20;;;;;;;1.56;75.79;98840.02;108262;1279;22635;-82
2022/01/27 10:26:18;;;;;;;23.30;12.00;;;;;;;1.62;74.93;98833.86;108280;1279;22548;-82
2022/01/27 10:28:56;;;;;;;22.90;11.40;;;;;;;1.55;74.68;98827.01;108223;1279;22635;-83
2022/01/27 10:31:25;;;;;;;22.20;12.20;;;;;;;1.54;74.48;98822.91;108122;1279;22675;-83
2022/01/27 10:34:06;;;;;;;23.60;11.70;;;;;;;1.52;74.44;98822.62;108259;1279;22581;-83
2022/01/27 10:36:43;;;;;;;31.70;15.40;;;;;;;1.57;74.12;98817.86;108348;1279;25316;-83
2022/01/27 10:39:15;;;;;;;22.40;11.70;;;;;;;1.55;74.12;98814.13;108356;1279;22579;-83
2022/01/27 10:41:55;;;;;;;25.90;13.00;;;;;;;1.58;73.87;98801.69;108317;1279;25469;-83
2022/01/27 10:44:23;;;;;;;27.80;13.90;;;;;;;1.64;74.16;98789.52;108282;1279;22579;-81
2022/01/27 10:47:07;;;;;;;26.20;13.00;;;;;;;1.71;73.87;98787.60;108309;1279;24243;-83
2022/01/27 10:49:40;;;;;;;30.30;14.30;;;;;;;1.72;74.35;98799.24;108308;1279;22579;-84
2022/01/27 10:52:13;;;;;;;28.00;13.90;;;;;;;1.69;74.15;98799.52;108312;1279;22568;-84
2022/01/27 10:54:49;;;;;;;25.70;12.50;;;;;;;1.72;73.73;98786.02;108348;1279;25359;-83
2022/01/27 10:57:16;;;;;;;24.20;11.10;;;;;;;1.69;73.60;98778.56;108276;1279;22559;-82
2022/01/27 10:59:43;;;;;;;23.60;12.50;;;;;;;1.65;73.07;98775.92;108222;1279;22550;-77
2022/01/27 11:02:13;;;;;;;21.20;11.00;;;;;;;1.57;72.94;98770.48;108045;1279;22566;-83
2022/01/27 11:04:42;;;;;;;21.30;10.50;;;;;;;1.51;73.35;98768.77;108043;1279;22627;-83
2022/01/27 11:07:12;;;;;;;24.20;12.30;;;;;;;1.54;73.47;98760.08;108033;1279;22717;-80
2022/01/27 11:09:43;;;;;;;23.80;12.30;;;;;;;1.56;74.35;98754.88;108056;1279;22572;-83
2022/01/27 11:12:16;;;;;;;26.40;14.00;;;;;;;1.62;74.85;98755.08;108044;1279;23401;-84
2022/01/27 11:14:49;;;;;;;23.50;12.20;;;;;;;1.63;73.98;98753.14;108011;1279;22559;-79
2022/01/27 11:17:19;;;;;;;28.00;12.10;;;;;;;1.59;73.42;98741.93;108000;1279;22581;-83
2022/01/27 11:25:49;;;;;;;23.50;12.30;;;;;;;1.50;73.02;98745.61;108024;1279;22547;-81
2022/01/27 11:27:58;;;;;;;21.80;10.40;;;;;;;1.55;72.68;98734.65;107991;1279;23576;-81
2022/01/27 11:30:37;;;;;;;21.80;9.80;;;;;;;1.58;72.84;98729.42;108013;1279;22672;-82
2022/01/27 11:33:17;;;;;;;19.20;8.70;;;;;;;1.68;72.66;98735.16;108009;1279;22623;-80
2022/01/27 11:35:44;;;;;;;18.00;7.80;;;;;;;1.68;72.62;98725.36;107923;1279;22565;-82
2022/01/27 11:38:12;;;;;;;21.30;11.00;;;;;;;1.68;72.24;98718.86;108014;1279;22706;-80
2022/01/27 11:40:45;;;;;;;26.00;12.90;;;;;;;1.62;72.36;98711.62;107932;1279;22718;-82
2022/01/27 11:43:14;;;;;;;25.50;12.40;;;;;;;1.62;72.58;98716.61;108141;1279;22739;-80
2022/01/27 11:45:52;;;;;;;21.50;10.20;;;;;;;1.64;72.54;98708.83;107903;1279;22586;-84
2022/01/27 11:48:24;;;;;;;21.60;10.00;;;;;;;1.67;72.17;98705.66;107896;1279;25318;-80
2022/01/27 11:51:10;;;;;;;20.40;9.90;;;;;;;1.68;72.33;98707.00;107942;1279;22573;-82
2022/01/27 11:53:48;;;;;;;22.50;10.20;;;;;;;1.62;71.91;98710.42;107941;1279;25315;-82
2022/01/27 11:56:26;;;;;;;20.50;10.00;;;;;;;1.54;72.38;98708.27;107936;1279;22589;-79
2022/01/27 11:58:56;;;;;;;22.70;11.30;;;;;;;1.50;72.14;98696.01;107957;1279;22578;-79
2022/01/27 12:01:25;;;;;;;18.80;10.70;;;;;;;1.47;72.26;98689.57;107958;1279;22673;-78
2022/01/27 12:04:05;;;;;;;21.00;10.70;;;;;;;1.44;72.45;98676.09;108012;1279;22547;-82
2022/01/27 12:07:01;;;;;;;20.40;10.30;;;;;;;1.49;72.22;98665.50;107943;1279;22559;-79
2022/01/27 12:09:30;;;;;;;20.80;10.70;;;;;;;1.52;72.54;98659.73;108023;1279;25326;-78
2022/01/27 12:12:06;;;;;;;19.30;10.30;;;;;;;1.55;72.56;98658.09;108211;1279;24315;-76